Terminal Aerodrome Forecast
Issued by NWS

Home | Current Version | Previous Version | Text Only | Print | Product List | Glossary Off
Versions: 1 2 3 4 5 6 7 8 9 10 11 12 13 14 15 16 17 18 19 20 21 22 23 24 25 26 27 28 29 30 31 32 33 34

000
FTUS42 KMHX 240557 AAB
TAFISO
TAF AMD
KISO 240557Z 2406/2506 23005KT P6SM BKN006 BKN020 OVC030
     FM241700 19010KT 6SM SHRA OVC040
     FM250000 18010KT 4SM SHRA OVC015
      AMD LTD TO CLD VIS AND WIND=

USA.gov is the U.S. government's official web portal to all federal, state and local government web resources and services.